Time;durP1;ratioP1;P1;durP2;ratioP2;P2;SDS_P1;SDS_P2;PMS_P1;PMS_P2;Temp;Humidity;BMP_temperature;BMP_pressure;BME280_temperature;BME280_humidity;BME280_pressure;Samples;Min_cycle;Max_cycle;Signal;HPM_P1;HPM_P2
2021/09/25 00:01:07;;;;;;;;;;;;;;;15.93;100.00;100595.13;4993765;28;20013;-76
2021/09/25 00:03:33;;;;;;;;;;;;;;;15.92;100.00;100588.78;4993684;28;19992;-76
2021/09/25 00:05:59;;;;;;;;;;;;;;;15.90;100.00;100591.69;4993692;28;20024;-76
2021/09/25 00:08:27;;;;;;;;;;;;;;;15.89;100.00;100589.97;4993434;28;20036;-76
2021/09/25 00:10:53;;;;;;;;;;;;;;;15.89;100.00;100592.72;4995984;28;19960;-76
2021/09/25 00:13:19;;;;;;;;;;;;;;;15.87;100.00;100594.78;4993737;28;19969;-76
2021/09/25 00:15:46;;;;;;;;;;;;;;;15.86;100.00;100586.69;4993487;28;20029;-76
2021/09/25 00:18:12;;;;;;;;;;;;;;;15.86;100.00;100594.91;4993384;28;20472;-76
2021/09/25 00:20:39;;;;;;;;;;;;;;;15.86;100.00;100587.56;4993591;28;19925;-76
2021/09/25 00:23:05;;;;;;;;;;;;;;;15.86;100.00;100592.16;4992015;28;20016;-77
2021/09/25 00:25:33;;;;;;;;;;;;;;;15.86;100.00;100592.16;4993341;28;19961;-76
2021/09/25 00:27:59;;;;;;;;;;;;;;;15.87;100.00;100585.69;4993124;28;20346;-76
2021/09/25 00:30:25;;;;;;;;;;;;;;;15.86;100.00;100584.84;4993091;28;20020;-76
2021/09/25 00:32:52;;;;;;;;;;;;;;;15.87;100.00;100583.81;4993113;28;19989;-76
2021/09/25 00:35:19;;;;;;;;;;;;;;;15.89;100.00;100589.13;4993326;28;19933;-77
2021/09/25 00:37:46;;;;;;;;;;;;;;;15.88;100.00;100587.41;4993122;28;20311;-76
2021/09/25 00:40:13;;;;;;;;;;;;;;;15.85;100.00;100577.66;4993248;28;19980;-76
2021/09/25 00:42:41;;;;;;;;;;;;;;;15.89;100.00;100578.19;4993255;28;19968;-76
2021/09/25 00:45:08;;;;;;;;;;;;;;;15.88;100.00;100576.47;4992895;28;19972;-77
2021/09/25 00:47:34;;;;;;;;;;;;;;;15.89;100.00;100575.44;4992947;28;20345;-76
2021/09/25 00:50:00;;;;;;;;;;;;;;;15.91;100.00;100584.34;4992832;28;20016;-76
2021/09/25 00:52:27;;;;;;;;;;;;;;;15.92;100.00;100574.25;4992692;28;20028;-76
2021/09/25 00:54:53;;;;;;;;;;;;;;;15.92;100.00;100585.22;4992400;28;19954;-76
2021/09/25 00:57:20;;;;;;;;;;;;;;;15.92;100.00;100580.59;4992476;28;20397;-76
2021/09/25 00:59:48;;;;;;;;;;;;;;;15.91;100.00;100581.59;4992657;28;20464;-76
2021/09/25 01:02:17;;;;;;;;;;;;;;;15.90;100.00;100588.13;4991219;28;20330;-76
2021/09/25 01:04:44;;;;;;;;;;;;;;;15.88;100.00;100585.50;4992732;28;19932;-76
2021/09/25 01:07:10;;;;;;;;;;;;;;;15.86;100.00;100584.84;4991458;28;19985;-76
2021/09/25 01:09:36;;;;;;;;;;;;;;;15.86;100.00;100587.56;4992324;28;20397;-76
2021/09/25 01:12:03;;;;;;;;;;;;;;;15.85;100.00;100580.38;4992536;28;20374;-76
2021/09/25 01:14:31;;;;;;;;;;;;;;;15.86;100.00;100587.56;4992414;28;19973;-76
2021/09/25 01:17:03;;;;;;;;;;;;;;;15.88;100.00;100584.66;4991253;28;20301;-76
2021/09/25 01:19:30;;;;;;;;;;;;;;;15.87;100.00;100592.03;4992366;28;19992;-76
2021/09/25 01:21:57;;;;;;;;;;;;;;;15.87;100.00;100588.41;4992404;28;20405;-76
2021/09/25 01:24:23;;;;;;;;;;;;;;;15.86;100.00;100584.84;4992745;28;20013;-76
2021/09/25 01:26:50;;;;;;;;;;;;;;;15.88;100.00;100584.66;4992150;28;19964;-76
2021/09/25 01:29:16;;;;;;;;;;;;;;;15.90;100.00;100583.50;4992238;28;20041;-76
2021/09/25 01:31:42;;;;;;;;;;;;;;;15.90;100.00;100574.44;4992274;28;20177;-76
2021/09/25 01:34:09;;;;;;;;;;;;;;;15.92;100.00;100577.84;4992293;28;19969;-76
2021/09/25 01:36:35;;;;;;;;;;;;;;;15.93;100.00;100589.63;4992001;28;19972;-76
2021/09/25 01:39:03;;;;;;;;;;;;;;;15.94;100.00;100577.69;4991897;28;20046;-77
2021/09/25 01:41:29;;;;;;;;;;;;;;;15.96;100.00;100589.34;4992263;28;20459;-77
2021/09/25 01:43:56;;;;;;;;;;;;;;;15.97;100.00;100588.31;4992171;28;19926;-77
2021/09/25 01:46:22;;;;;;;;;;;;;;;15.98;100.00;100585.41;4992127;28;19965;-77
2021/09/25 01:48:50;;;;;;;;;;;;;;;15.98;100.00;100582.69;4991613;28;21286;-76
2021/09/25 01:51:16;;;;;;;;;;;;;;;15.97;100.00;100586.44;4992067;28;20369;-76
2021/09/25 01:53:43;;;;;;;;;;;;;;;15.98;100.00;100590.00;4991055;28;20037;-76
2021/09/25 01:56:12;;;;;;;;;;;;;;;15.97;100.00;100591.06;4991921;28;20017;-76
2021/09/25 01:58:38;;;;;;;;;;;;;;;15.98;100.00;100590.00;4991787;28;20310;-76
2021/09/25 02:01:05;;;;;;;;;;;;;;;15.97;100.00;100596.53;4991947;28;19965;-76
2021/09/25 02:03:35;;;;;;;;;;;;;;;15.97;100.00;100596.53;4992053;28;20394;-77
2021/09/25 02:06:01;;;;;;;;;;;;;;;15.95;100.00;100590.34;4994035;28;19980;-76
2021/09/25 02:08:28;;;;;;;;;;;;;;;15.94;100.00;100583.16;4995601;28;20420;-76
2021/09/25 02:10:54;;;;;;;;;;;;;;;15.90;100.00;100597.19;4996042;28;19926;-76
2021/09/25 02:13:22;;;;;;;;;;;;;;;15.87;100.00;100586.56;4995692;28;20296;-76
2021/09/25 02:15:48;;;;;;;;;;;;;;;15.87;100.00;100581.09;4998193;28;20016;-76
2021/09/25 02:18:14;;;;;;;;;;;;;;;15.83;100.00;100587.91;4995529;28;20375;-75
2021/09/25 02:20:40;;;;;;;;;;;;;;;15.81;100.00;100589.94;4995641;28;19965;-76
2021/09/25 02:23:07;;;;;;;;;;;;;;;15.79;100.00;100582.88;4994523;28;20036;-76
2021/09/25 02:25:33;;;;;;;;;;;;;;;15.77;100.00;100587.63;4995318;28;20023;-76
2021/09/25 02:27:59;;;;;;;;;;;;;;;15.74;100.00;100583.38;4995486;28;19926;-76
2021/09/25 02:30:28;;;;;;;;;;;;;;;15.70;100.00;100592.91;4995190;28;20340;-76
2021/09/25 02:32:55;;;;;;;;;;;;;;;15.71;100.00;100594.63;4995455;28;20309;-76
2021/09/25 02:35:22;;;;;;;;;;;;;;;15.72;100.00;100599.94;4995538;28;19925;-76
2021/09/25 02:37:49;;;;;;;;;;;;;;;15.72;100.00;100602.66;4995165;28;19957;-76
2021/09/25 02:40:16;;;;;;;;;;;;;;;15.73;100.00;100604.38;4995216;28;20025;-76
2021/09/25 02:42:43;;;;;;;;;;;;;;;15.77;100.00;100606.78;4995368;28;19957;-76
2021/09/25 02:45:10;;;;;;;;;;;;;;;15.77;100.00;100604.94;4995603;28;19926;-76
2021/09/25 02:47:38;;;;;;;;;;;;;;;15.77;100.00;100602.19;4994891;28;20386;-76
2021/09/25 02:50:05;;;;;;;;;;;;;;;15.77;100.00;100607.66;4995105;28;20066;-76
2021/09/25 02:52:31;;;;;;;;;;;;;;;15.80;100.00;100603.75;4995221;28;19962;-76
2021/09/25 02:54:58;;;;;;;;;;;;;;;15.82;100.00;100607.19;4994979;28;19965;-76
2021/09/25 02:57:24;;;;;;;;;;;;;;;15.84;100.00;100610.66;4994968;28;20029;-76
2021/09/25 02:59:50;;;;;;;;;;;;;;;15.84;100.00;100611.50;4994764;28;19926;-76
2021/09/25 03:02:17;;;;;;;;;;;;;;;15.83;100.00;100612.53;4995080;28;20358;-75
2021/09/25 03:04:45;;;;;;;;;;;;;;;15.85;100.00;100613.22;4994967;28;20013;-76
2021/09/25 03:07:11;;;;;;;;;;;;;;;15.86;100.00;100614.94;4994591;28;19973;-75
2021/09/25 03:09:37;;;;;;;;;;;;;;;15.88;100.00;100612.03;4994673;28;19969;-76
2021/09/25 03:12:04;;;;;;;;;;;;;;;15.88;100.00;100614.78;4994616;28;19968;-76
2021/09/25 03:14:30;;;;;;;;;;;;;;;15.89;100.00;100608.28;4994694;28;20402;-76
2021/09/25 03:16:56;;;;;;;;;;;;;;;15.89;100.00;100617.34;4993849;28;20170;-76
2021/09/25 03:19:22;;;;;;;;;;;;;;;15.89;100.00;100619.25;4994478;28;20044;-76
2021/09/25 03:21:50;;;;;;;;;;;;;;;15.89;100.00;100608.28;4994740;28;20020;-76
2021/09/25 03:24:16;;;;;;;;;;;;;;;15.91;100.00;100628.13;4994407;28;20368;-76
2021/09/25 03:26:42;;;;;;;;;;;;;;;15.90;100.00;100627.28;4994513;28;20028;-75
2021/09/25 03:29:10;;;;;;;;;;;;;;;15.92;100.00;100618.06;4994597;28;19976;-76
2021/09/25 03:31:36;;;;;;;;;;;;;;;15.90;100.00;100631.91;4993342;28;19926;-75
2021/09/25 03:34:03;;;;;;;;;;;;;;;15.89;100.00;100628.28;4994595;28;19965;-76
2021/09/25 03:36:29;;;;;;;;;;;;;;;15.89;100.00;100631.03;4994182;28;19957;-76
2021/09/25 03:38:57;;;;;;;;;;;;;;;15.86;100.00;100631.38;4994217;28;20029;-76
2021/09/25 03:41:23;;;;;;;;;;;;;;;15.85;100.00;100642.47;4994064;28;20397;-76
2021/09/25 03:43:50;;;;;;;;;;;;;;;15.84;100.00;100636.13;4993011;28;20036;-76
2021/09/25 03:46:17;;;;;;;;;;;;;;;15.84;100.00;100644.34;4993935;28;19926;-76
2021/09/25 03:48:44;;;;;;;;;;;;;;;15.84;100.00;100649.81;4993984;28;19957;-76
2021/09/25 03:51:10;;;;;;;;;;;;;;;15.81;100.00;100650.16;4994182;28;19961;-76
2021/09/25 03:53:37;;;;;;;;;;;;;;;15.76;100.00;100660.69;4993836;28;20425;-76
2021/09/25 03:56:07;;;;;;;;;;;;;;;15.63;100.00;100674.75;4993886;28;19969;-76
2021/09/25 03:58:34;;;;;;;;;;;;;;;15.47;100.00;100680.13;4992498;28;19930;-76
2021/09/25 04:01:00;;;;;;;;;;;;;;;15.32;100.00;100677.09;4993833;28;19926;-76
2021/09/25 04:03:26;;;;;;;;;;;;;;;15.16;100.00;100677.78;4994022;28;19930;-75
2021/09/25 04:05:54;;;;;;;;;;;;;;;15.05;100.00;100687.06;4993668;28;19934;-77
2021/09/25 04:08:20;;;;;;;;;;;;;;;14.95;100.00;100686.28;4993617;28;19926;-76
2021/09/25 04:10:46;;;;;;;;;;;;;;;14.88;100.00;100694.22;4993847;28;19960;-77
2021/09/25 04:13:14;;;;;;;;;;;;;;;14.85;100.00;100697.28;4996202;28;20356;-77
2021/09/25 04:15:40;;;;;;;;;;;;;;;14.82;100.00;100698.44;4993916;28;20057;-77
2021/09/25 04:18:08;;;;;;;;;;;;;;;14.80;100.00;100707.81;4992307;28;19968;-77
2021/09/25 04:20:34;;;;;;;;;;;;;;;14.76;100.00;100709.13;4993330;28;19952;-77
2021/09/25 04:23:01;;;;;;;;;;;;;;;14.75;100.00;100702.78;4993300;28;20013;-77
2021/09/25 04:25:30;;;;;;;;;;;;;;;14.76;100.00;100706.41;4993484;28;20065;-77
2021/09/25 04:27:56;;;;;;;;;;;;;;;14.73;100.00;100705.66;4991872;28;20312;-76
2021/09/25 04:30:24;;;;;;;;;;;;;;;14.72;100.00;100703.97;4992372;28;20024;-77
2021/09/25 04:32:50;;;;;;;;;;;;;;;14.72;100.00;100709.44;4996481;28;19972;-76
2021/09/25 04:35:18;;;;;;;;;;;;;;;14.69;100.00;100698.78;4997140;28;20385;-76
2021/09/25 04:37:44;;;;;;;;;;;;;;;14.67;100.00;100700.84;5006232;28;19934;-76
2021/09/25 04:40:11;;;;;;;;;;;;;;;14.67;100.00;100705.41;5007068;28;20004;-77
2021/09/25 04:42:37;;;;;;;;;;;;;;;14.66;100.00;100706.47;4993746;28;19932;-76
2021/09/25 04:45:04;;;;;;;;;;;;;;;14.64;100.00;100708.47;5011049;28;19925;-77
2021/09/25 04:47:31;;;;;;;;;;;;;;;14.63;100.00;100710.34;5010192;28;20020;-77
2021/09/25 04:49:58;;;;;;;;;;;;;;;14.63;100.00;100717.63;5012585;28;19968;-77
2021/09/25 04:52:24;;;;;;;;;;;;;;;14.63;100.00;100714.91;4995557;28;20024;-76
2021/09/25 04:54:50;;;;;;;;;;;;;;;14.60;100.00;100716.06;5012515;28;20024;-77
2021/09/25 04:57:16;;;;;;;;;;;;;;;14.57;100.00;100711.75;5010700;28;20024;-77
2021/09/25 04:59:43;;;;;;;;;;;;;;;14.56;100.00;100712.78;5012302;28;19925;-77
2021/09/25 05:02:09;;;;;;;;;;;;;;;14.54;100.00;100714.81;5012124;28;20020;-77
2021/09/25 05:04:36;;;;;;;;;;;;;;;14.54;100.00;100706.59;5012349;28;19969;-77
2021/09/25 05:07:03;;;;;;;;;;;;;;;14.54;100.00;100711.22;5012249;28;20036;-77
2021/09/25 05:09:29;;;;;;;;;;;;;;;14.53;100.00;100709.50;4997850;28;20405;-77
2021/09/25 05:11:55;;;;;;;;;;;;;;;14.54;100.00;100712.06;4995272;28;19970;-77
2021/09/25 05:14:22;;;;;;;;;;;;;;;14.56;100.00;100717.38;5001986;28;20367;-76
2021/09/25 05:16:48;;;;;;;;;;;;;;;14.56;100.00;100712.78;5012117;28;19968;-77
2021/09/25 05:19:14;;;;;;;;;;;;;;;14.57;100.00;100714.50;5008938;28;20016;-76
2021/09/25 05:21:42;;;;;;;;;;;;;;;14.59;100.00;100714.38;5003434;28;19999;-76
2021/09/25 05:24:08;;;;;;;;;;;;;;;14.61;100.00;100708.75;4996737;28;19971;-76
2021/09/25 05:26:35;;;;;;;;;;;;;;;14.61;100.00;100712.31;5003705;28;19961;-78
2021/09/25 05:29:01;;;;;;;;;;;;;;;14.64;100.00;100717.50;5012013;28;19951;-77
2021/09/25 05:31:28;;;;;;;;;;;;;;;14.66;100.00;100720.13;5002621;28;20016;-77
2021/09/25 05:33:54;;;;;;;;;;;;;;;14.69;100.00;100717.06;5011877;28;20021;-76
2021/09/25 05:36:20;;;;;;;;;;;;;;;14.68;100.00;100724.38;5007542;28;20397;-76
2021/09/25 05:38:48;;;;;;;;;;;;;;;14.70;100.00;100727.00;5011086;28;19968;-77
2021/09/25 05:41:14;;;;;;;;;;;;;;;14.69;100.00;100719.81;4997379;28;20244;-77
2021/09/25 05:43:40;;;;;;;;;;;;;;;14.72;100.00;100724.97;4992528;28;19961;-77
2021/09/25 05:46:07;;;;;;;;;;;;;;;14.75;100.00;100719.19;5006463;28;20041;-77
2021/09/25 05:48:34;;;;;;;;;;;;;;;14.83;100.00;100723.88;5001111;28;19934;-76
2021/09/25 05:51:01;;;;;;;;;;;;;;;14.88;100.00;100716.09;4992066;28;19932;-76
2021/09/25 05:53:27;;;;;;;;;;;;;;;14.93;100.00;100718.38;4994776;28;19968;-76
2021/09/25 05:55:54;;;;;;;;;;;;;;;14.98;100.00;100724.22;5009836;28;19936;-70
2021/09/25 05:58:21;;;;;;;;;;;;;;;15.00;100.00;100720.31;5008089;28;20289;-70
2021/09/25 06:00:47;;;;;;;;;;;;;;;15.02;100.00;100728.41;5010267;28;20381;-70
2021/09/25 06:03:15;;;;;;;;;;;;;;;15.03;100.00;100728.25;5011561;28;20037;-70
2021/09/25 06:05:41;;;;;;;;;;;;;;;15.04;100.00;100732.66;5011676;28;20403;-70
2021/09/25 06:08:08;;;;;;;;;;;;;;;15.06;100.00;100721.59;5010678;28;19995;-70
2021/09/25 06:10:34;;;;;;;;;;;;;;;15.13;100.00;100732.78;5011761;28;19976;-70
2021/09/25 06:13:03;;;;;;;;;;;;;;;15.14;100.00;100727.16;5011116;28;20428;-70
2021/09/25 06:15:30;;;;;;;;;;;;;;;15.22;100.00;100727.25;5009725;28;19971;-70
2021/09/25 06:17:56;;;;;;;;;;;;;;;15.26;100.00;100737.84;5010137;28;20024;-70
2021/09/25 06:20:22;;;;;;;;;;;;;;;15.29;100.00;100734.84;5009471;28;19925;-70
2021/09/25 06:22:49;;;;;;;;;;;;;;;15.33;100.00;100739.81;5009257;28;19933;-70
2021/09/25 06:25:15;;;;;;;;;;;;;;;15.36;100.00;100742.22;5011763;28;19926;-70
2021/09/25 06:27:41;;;;;;;;;;;;;;;15.42;100.00;100750.84;5011157;28;20034;-70
2021/09/25 06:30:10;;;;;;;;;;;;;;;15.40;100.00;100742.78;5011258;28;20348;-70
2021/09/25 06:32:36;;;;;;;;;;;;;;;15.48;100.00;100752.97;5011191;28;20016;-70
2021/09/25 06:35:02;;;;;;;;;;;;;;;15.48;100.00;100742.00;5011598;28;19968;-70
2021/09/25 06:37:30;;;;;;;;;;;;;;;15.56;100.00;100742.94;5010702;28;20027;-70
2021/09/25 06:39:56;;;;;;;;;;;;;;;15.64;100.00;100749.50;5011112;28;19930;-70
2021/09/25 06:42:22;;;;;;;;;;;;;;;15.68;100.00;100735.34;5011228;28;19968;-70
2021/09/25 06:44:49;;;;;;;;;;;;;;;15.79;100.00;100738.88;5009886;28;19994;-70
2021/09/25 06:47:16;;;;;;;;;;;;;;;15.84;100.00;100737.41;5011150;28;20013;-70
2021/09/25 06:49:42;;;;;;;;;;;;;;;15.92;100.00;100733.03;5010818;28;19972;-70
2021/09/25 06:52:10;;;;;;;;;;;;;;;15.93;100.00;100734.72;5011835;28;20449;-70
2021/09/25 06:54:37;;;;;;;;;;;;;;;15.96;100.00;100735.25;5014653;28;20316;-70
2021/09/25 06:57:04;;;;;;;;;;;;;;;15.99;100.00;100728.63;5014436;28;19975;-70
2021/09/25 06:59:30;;;;;;;;;;;;;;;16.08;100.00;100737.75;5014474;28;19972;-70
2021/09/25 07:01:57;;;;;;;;;;;;;;;16.14;100.00;100728.88;5014327;28;19965;-70
2021/09/25 07:04:24;;;;;;;;;;;;;;;16.16;100.00;100735.91;5014554;28;20024;-69
2021/09/25 07:06:50;;;;;;;;;;;;;;;16.18;100.00;100736.63;5014324;28;20389;-70
2021/09/25 07:09:17;;;;;;;;;;;;;;;16.25;100.00;100739.59;5014573;28;19960;-70
2021/09/25 07:11:43;;;;;;;;;;;;;;;16.39;100.00;100749.06;5013229;28;20042;-70
2021/09/25 07:14:09;;;;;;;;;;;;;;;16.43;100.00;100738.66;5014342;28;19948;-71
2021/09/25 07:16:36;;;;;;;;;;;;;;;16.42;100.00;100746.00;5012969;28;20025;-70
2021/09/25 07:19:04;;;;;;;;;;;;;;;16.48;100.00;100761.78;5014136;28;19976;-70
2021/09/25 07:21:31;;;;;;;;;;;;;;;16.57;100.00;100759.97;5014111;28;20416;-70
2021/09/25 07:23:58;;;;;;;;;;;;;;;16.50;100.00;100759.75;5014299;28;19956;-70
2021/09/25 07:26:24;;;;;;;;;;;;;;;16.50;100.00;100764.38;5013785;28;20009;-70
2021/09/25 07:28:50;;;;;;;;;;;;;;;16.63;100.00;100759.28;5014035;28;19967;-70
2021/09/25 07:31:17;;;;;;;;;;;;;;;16.67;100.00;100759.84;5013726;28;20036;-70
2021/09/25 07:33:43;;;;;;;;;;;;;;;16.73;100.00;100754.56;5013882;28;19992;-70
2021/09/25 07:36:09;;;;;;;;;;;;;;;16.71;100.00;100758.47;5013594;28;19968;-70
2021/09/25 07:38:37;;;;;;;;;;;;;;;16.71;100.00;100772.19;5013476;28;20460;-70
2021/09/25 07:41:04;;;;;;;;;;;;;;;16.76;100.00;100774.44;5013750;28;20024;-70
2021/09/25 07:43:30;;;;;;;;;;;;;;;16.75;100.00;100779.06;5013595;28;20294;-71
2021/09/25 07:45:57;;;;;;;;;;;;;;;16.64;100.00;100784.84;5013359;28;20016;-71
2021/09/25 07:48:24;;;;;;;;;;;;;;;16.63;100.00;100783.09;5013323;28;20073;-71
2021/09/25 07:50:51;;;;;;;;;;;;;;;16.66;100.00;100780.91;5013510;28;20004;-71
2021/09/25 07:53:17;;;;;;;;;;;;;;;16.74;100.00;100777.31;5013610;28;20439;-71
2021/09/25 07:55:45;;;;;;;;;;;;;;;16.84;100.00;100783.56;5013590;28;20204;-71
2021/09/25 07:58:11;;;;;;;;;;;;;;;16.87;100.00;100783.22;5012255;28;20310;-70
2021/09/25 08:00:39;;;;;;;;;;;;;;;16.87;100.00;100788.69;5012976;28;20029;-71
2021/09/25 08:03:05;;;;;;;;;;;;;;;16.83;100.00;100790.06;5013325;28;20016;-71
2021/09/25 08:05:31;;;;;;;;;;;;;;;17.02;100.00;100790.84;5013241;28;20016;-71
2021/09/25 08:07:58;;;;;;;;;;;;;;;17.27;100.00;100786.31;4999826;28;20020;-71
2021/09/25 08:10:24;;;;;;;;;;;;;;;17.58;100.00;100785.69;5017892;28;20270;-71
2021/09/25 08:12:52;;;;;;;;;;;;;;;17.77;100.00;100791.88;5008884;28;19933;-70
2021/09/25 08:15:18;;;;;;;;;;;;;;;17.71;100.00;100788.78;5000935;28;19933;-71
2021/09/25 08:17:45;;;;;;;;;;;;;;;17.67;100.00;100795.66;5005284;28;20305;-70
2021/09/25 08:20:13;;;;;;;;;;;;;;;17.51;100.00;100801.97;5009539;28;19987;-69
2021/09/25 08:22:39;;;;;;;;;;;;;;;17.39;100.00;100800.56;4995347;28;19925;-70
2021/09/25 08:25:06;;;;;;;;;;;;;;;17.36;100.00;100795.44;5001208;28;19926;-70
2021/09/25 08:27:32;;;;;;;;;;;;;;;17.39;100.00;100797.84;5000541;28;20405;-71
2021/09/25 08:30:00;;;;;;;;;;;;;;;17.60;100.00;100801.97;5007528;28;20020;-70
2021/09/25 08:32:26;;;;;;;;;;;;;;;17.82;100.00;100804.06;5002116;28;20016;-72
2021/09/25 08:34:52;;;;;;;;;;;;;;;17.77;100.00;100794.63;5012182;28;19973;-77
2021/09/25 08:37:18;;;;;;;;;;;;;;;17.56;100.00;100805.06;5003947;28;20021;-78
2021/09/25 08:39:45;;;;;;;;;;;;;;;17.51;100.00;100803.88;4999012;28;20050;-77
2021/09/25 08:42:12;;;;;;;;;;;;;;;17.51;100.00;100812.09;5000026;28;20087;-77
2021/09/25 08:44:38;;;;;;;;;;;;;;;17.47;100.00;100817.06;4998685;28;19976;-72
2021/09/25 08:47:06;;;;;;;;;;;;;;;17.38;100.00;100818.06;4991970;28;20448;-72
2021/09/25 08:49:32;;;;;;;;;;;;;;;17.33;100.00;100834.16;4991985;28;20012;-72
2021/09/25 08:52:00;;;;;;;;;;;;;;;17.17;100.00;100819.38;4993064;28;20020;-73
2021/09/25 08:54:27;;;;;;;;;;;;;;;17.18;100.00;100823.84;4992727;28;20449;-73
2021/09/25 08:56:53;;;;;;;;;;;;;;;17.22;100.00;100829.84;4992932;28;20025;-73
2021/09/25 08:59:19;;;;;;;;;;;;;;;17.28;100.00;100833.81;4992325;28;20030;-73
2021/09/25 09:01:48;;;;;;;;;;;;;;;17.24;100.00;100834.13;4992448;28;20024;-73
2021/09/25 09:04:17;;;;;;;;;;;;;;;17.20;100.00;100831.91;4992766;28;19925;-73
2021/09/25 09:06:47;;;;;;;;;;;;;;;17.20;100.00;100834.66;4992522;28;19961;-73
2021/09/25 09:09:13;;;;;;;;;;;;;;;17.28;100.00;100834.66;4992742;28;19969;-72
2021/09/25 09:11:41;;;;;;;;;;;;;;;17.21;100.00;100834.47;4992519;28;20361;-73
2021/09/25 09:14:08;;;;;;;;;;;;;;;17.18;100.00;100839.41;4992718;28;19976;-72
2021/09/25 09:16:34;;;;;;;;;;;;;;;17.18;100.00;100833.94;4991804;28;19937;-72
2021/09/25 09:19:01;;;;;;;;;;;;;;;17.17;100.00;100835.84;4992370;28;19926;-72
2021/09/25 09:21:29;;;;;;;;;;;;;;;17.13;100.00;100836.31;4991158;28;19953;-72
2021/09/25 09:23:56;;;;;;;;;;;;;;;17.19;100.00;100838.41;4992325;28;20464;-73
2021/09/25 09:26:24;;;;;;;;;;;;;;;17.14;100.00;100838.88;4992293;28;20401;-72
2021/09/25 09:28:51;;;;;;;;;;;;;;;17.16;100.00;100841.50;4990855;28;19926;-73
2021/09/25 09:31:18;;;;;;;;;;;;;;;17.12;100.00;100840.94;4992469;28;20028;-73
2021/09/25 09:33:46;;;;;;;;;;;;;;;17.10;100.00;100837.50;4992191;28;19964;-73
2021/09/25 09:36:14;;;;;;;;;;;;;;;17.09;100.00;100855.00;4992261;28;19969;-73
2021/09/25 09:38:46;;;;;;;;;;;;;;;17.01;100.00;100860.41;4992228;28;20456;-72
2021/09/25 09:41:13;;;;;;;;;;;;;;;16.94;100.00;100859.38;4974527;28;19926;-73
2021/09/25 09:43:40;;;;;;;;;;;;;;;16.92;100.00;100861.44;4974648;28;19945;-73
2021/09/25 09:46:07;;;;;;;;;;;;;;;16.92;100.00;100867.75;4992083;28;19972;-73
2021/09/25 09:48:33;;;;;;;;;;;;;;;16.90;100.00;100867.06;4992142;28;19926;-73
2021/09/25 09:51:00;;;;;;;;;;;;;;;16.90;100.00;100870.66;4992101;28;19968;-73
2021/09/25 09:53:29;;;;;;;;;;;;;;;16.90;100.00;100876.16;4992005;28;19933;-72
2021/09/25 09:56:11;;;;;;;;;;;;;;;16.91;100.00;100877.00;4991965;28;19991;-73
2021/09/25 09:58:38;;;;;;;;;;;;;;;16.90;100.00;100887.13;4991625;28;20389;-73
2021/09/25 10:01:06;;;;;;;;;;;;;;;16.89;100.00;100884.50;4991661;28;20417;-73
2021/09/25 10:03:32;;;;;;;;;;;;;;;16.85;100.00;100886.72;4990185;28;19926;-73
2021/09/25 10:05:58;;;;;;;;;;;;;;;16.79;100.00;100883.75;4989930;28;19962;-73
2021/09/25 10:08:25;;;;;;;;;;;;;;;16.78;100.00;100893.84;4989899;28;19933;-73
2021/09/25 10:10:51;;;;;;;;;;;;;;;16.90;100.00;100889.84;4994643;28;19933;-73
2021/09/25 10:13:18;;;;;;;;;;;;;;;17.26;100.00;100887.97;4994852;28;19973;-73
2021/09/25 10:15:45;;;;;;;;;;;;;;;17.65;100.00;100880.06;4991934;28;19961;-72
2021/09/25 10:18:12;;;;;;;;;;;;;;;17.99;100.00;100870.03;4993374;28;20330;-73
2021/09/25 10:20:38;;;;;;;;;;;;;;;18.43;100.00;100861.44;5010752;28;20028;-72
2021/09/25 10:23:05;;;;;;;;;;;;;;;18.88;100.00;100854.53;5010624;28;20020;-73
2021/09/25 10:25:31;;;;;;;;;;;;;;;19.44;100.00;100853.63;5011364;28;19980;-73
2021/09/25 10:27:58;;;;;;;;;;;;;;;19.63;100.00;100848.69;5014232;28;19969;-72
2021/09/25 10:30:34;;;;;;;;;;;;;;;19.36;100.00;100861.91;5013520;28;19926;-73
2021/09/25 10:33:13;;;;;;;;;;;;;;;18.79;100.00;100880.31;5012031;28;19972;-73
2021/09/25 10:35:39;;;;;;;;;;;;;;;18.64;100.00;100885.66;4995431;28;20045;-73
2021/09/25 10:38:05;;;;;;;;;;;;;;;18.47;100.00;100886.72;4995354;28;19968;-73
2021/09/25 10:40:33;;;;;;;;;;;;;;;18.34;100.00;100898.22;4995175;28;19980;-73
2021/09/25 10:43:00;;;;;;;;;;;;;;;18.22;100.00;100901.28;4995458;28;20020;-73
2021/09/25 10:45:27;;;;;;;;;;;;;;;18.01;100.00;100906.41;4995275;28;20258;-73
2021/09/25 10:48:08;;;;;;;;;;;;;;;18.14;100.00;100908.66;4995248;28;19926;-73
2021/09/25 10:50:35;;;;;;;;;;;;;;;18.55;100.00;100909.53;4993946;28;19933;-72
2021/09/25 10:53:12;;;;;;;;;;;;;;;18.63;100.00;100913.31;4995164;28;19934;-73
2021/09/25 10:55:39;;;;;;;;;;;;;;;18.53;100.00;100913.47;4995121;28;19930;-73
2021/09/25 10:58:13;;;;;;;;;;;;;;;18.36;100.00;100919.00;4993860;28;20024;-73
2021/09/25 11:00:49;;;;;;;;;;;;;;;18.36;100.00;100919.00;4994930;28;19969;-73
2021/09/25 11:03:31;;;;;;;;;;;;;;;18.26;100.00;100918.28;4995134;28;20025;-73
2021/09/25 11:06:03;;;;;;;;;;;;;;;18.24;100.00;100926.72;4994651;28;19957;-72
2021/09/25 11:08:31;;;;;;;;;;;;;;;18.23;100.00;100921.38;4994650;28;19926;-73
2021/09/25 11:11:04;;;;;;;;;;;;;;;18.24;100.00;100928.59;4994962;28;20364;-73
2021/09/25 11:13:50;;;;;;;;;;;;;;;18.38;100.00;100927.91;4994573;28;20300;-73
2021/09/25 11:16:16;;;;;;;;;;;;;;;18.58;100.00;100924.81;4994524;28;19980;-73
2021/09/25 11:18:50;;;;;;;;;;;;;;;18.60;100.00;100922.78;4994681;28;19961;-73
2021/09/25 11:21:18;;;;;;;;;;;;;;;18.58;100.00;100922.91;4994593;28;19926;-73
2021/09/25 11:23:44;;;;;;;;;;;;;;;18.47;100.00;100925.19;4994692;28;20013;-73
2021/09/25 11:26:11;;;;;;;;;;;;;;;18.32;100.00;100933.22;4994299;28;20412;-72
2021/09/25 11:28:39;;;;;;;;;;;;;;;18.21;100.00;100928.94;4994433;28;19961;-72
2021/09/25 11:31:08;;;;;;;;;;;;;;;18.09;100.00;100931.13;4993085;28;20347;-73
2021/09/25 11:33:36;;;;;;;;;;;;;;;18.18;100.00;100923.78;4993201;28;20290;-73
2021/09/25 11:36:07;;;;;;;;;;;;;;;18.29;100.00;100925.34;4994144;28;19980;-72
2021/09/25 11:38:43;;;;;;;;;;;;;;;18.27;100.00;100928.25;4992411;28;19960;-73
2021/09/25 11:41:13;;;;;;;;;;;;;;;18.25;100.00;100930.31;4993046;28;19961;-72
2021/09/25 11:43:39;;;;;;;;;;;;;;;18.19;100.00;100933.75;4993829;28;20017;-73
2021/09/25 11:46:06;;;;;;;;;;;;;;;18.25;100.00;100935.78;4993765;28;19926;-73
2021/09/25 11:48:34;;;;;;;;;;;;;;;18.44;100.00;100929.13;4993853;28;19977;-72
2021/09/25 11:51:02;;;;;;;;;;;;;;;18.74;100.00;100915.72;4992320;28;19926;-72
2021/09/25 11:53:30;;;;;;;;;;;;;;;19.14;100.00;100908.44;4993525;28;20389;-72
2021/09/25 11:55:59;;;;;;;;;;;;;;;19.56;100.00;100901.75;4993892;28;19926;-73
2021/09/25 11:58:25;;;;;;;;;;;;;;;20.07;100.00;100897.69;4993897;28;20021;-73
2021/09/25 12:00:52;;;;;;;;;;;;;;;20.23;100.00;100891.19;4993693;28;20025;-72
2021/09/25 12:03:19;;;;;;;;;;;;;;;20.48;100.00;100891.81;4992576;28;20394;-72
2021/09/25 12:05:47;;;;;;;;;;;;;;;20.39;100.00;100884.66;4994415;28;19929;-73
2021/09/25 12:08:17;;;;;;;;;;;;;;;20.43;100.00;100887.91;4993102;28;19937;-73
2021/09/25 12:10:44;;;;;;;;;;;;;;;20.51;100.00;100893.34;4994117;28;19933;-72
2021/09/25 12:13:13;;;;;;;;;;;;;;;20.56;100.00;100886.25;4994249;28;20306;-72
2021/09/25 12:15:40;;;;;;;;;;;;;;;20.60;100.00;100881.22;4994856;28;19930;-72
2021/09/25 12:18:07;;;;;;;;;;;;;;;20.63;100.00;100891.00;4993477;28;20021;-73
2021/09/25 12:20:34;;;;;;;;;;;;;;;20.53;100.00;100886.59;4999422;28;20020;-72
2021/09/25 12:23:01;;;;;;;;;;;;;;;20.46;100.00;100891.16;4992826;28;19984;-72
2021/09/25 12:25:27;;;;;;;;;;;;;;;20.31;100.00;100887.50;4993144;28;20376;-72
2021/09/25 12:27:54;;;;;;;;;;;;;;;20.19;100.00;100895.34;4993432;28;20374;-72